Time,TemperatureF,DewpointF,PressureIn,WindDirection,WindDirectionDegrees,WindSpeedMPH,WindSpeedGustMPH,Humidity,HourlyPrecipIn,Conditions,Clouds,dailyrainin,SolarRadiationWatts/m^2,SoftwareType,DateUTC
2013-03-28 00:04:00,41.9,32.1,30.13,NE,55,6.0,8.0,68,0.00,,,0.00,0,Wunderground v.1.15,2013-03-28 05:04:00,
2013-03-28 00:10:00,41.0,32.0,30.13,NE,55,6.0,6.0,70,0.00,,,0.00,0,Wunderground v.1.15,2013-03-28 05:10:00,
2013-03-28 00:16:00,41.1,32.1,30.12,NE,54,5.0,5.0,70,0.00,,,0.00,0,Wunderground v.1.15,2013-03-28 05:16:00,
2013-03-28 00:22:00,41.4,32.0,30.13,NE,54,6.0,7.0,69,0.00,,,0.00,0,Wunderground v.1.15,2013-03-28 05:22:00,
2013-03-28 00:28:00,41.4,32.0,30.12,NE,54,6.0,7.0,69,0.00,,,0.00,0,Wunderground v.1.15,2013-03-28 05:28:00,
2013-03-28 00:34:00,42.1,31.9,30.12,NE,54,5.0,7.0,67,0.00,,,0.00,0,Wunderground v.1.15,2013-03-28 05:34:00,
2013-03-28 00:40:00,42.0,31.8,30.12,NE,54,5.0,5.0,67,0.00,,,0.00,0,Wunderground v.1.15,2013-03-28 05:40:00,
2013-03-28 00:46:00,42.1,31.6,30.12,NE,54,4.0,5.0,66,0.00,,,0.00,0,Wunderground v.1.15,2013-03-28 05:46:00,
2013-03-28 00:52:00,42.0,31.5,30.12,NE,54,4.0,5.0,66,0.00,,,0.00,0,Wunderground v.1.15,2013-03-28 05:52:00,
2013-03-28 00:58:00,41.4,31.3,30.12,NE,54,4.0,5.0,67,0.00,,,0.00,0,Wunderground v.1.15,2013-03-28 05:58:00,
2013-03-28 01:04:00,41.2,31.4,30.12,NE,54,4.0,5.0,68,0.00,,,0.00,0,Wunderground v.1.15,2013-03-28 06:04:00,
2013-03-28 01:10:00,41.0,31.2,30.13,NE,54,4.0,5.0,68,0.00,,,0.00,0,Wunderground v.1.15,2013-03-28 06:10:00,
2013-03-28 01:16:00,40.6,31.6,30.13,NE,54,5.0,5.0,70,0.00,,,0.00,0,Wunderground v.1.15,2013-03-28 06:16:00,
2013-03-28 01:22:00,40.9,31.5,30.13,NE,54,5.0,5.0,69,0.00,,,0.00,0,Wunderground v.1.15,2013-03-28 06:22:00,
2013-03-28 01:28:00,40.9,31.5,30.13,NE,54,5.0,5.0,69,0.00,,,0.00,0,Wunderground v.1.15,2013-03-28 06:28:00,
2013-03-28 01:34:00,40.1,31.1,30.13,NE,54,5.0,8.0,70,0.00,,,0.00,0,Wunderground v.1.15,2013-03-28 06:34:00,
2013-03-28 01:40:00,40.2,31.2,30.13,NE,54,5.0,5.0,70,0.00,,,0.00,0,Wunderground v.1.15,2013-03-28 06:40:00,
2013-03-28 01:46:00,39.9,30.5,30.13,NE,54,5.0,5.0,69,0.00,,,0.00,0,Wunderground v.1.15,2013-03-28 06:46:00,
2013-03-28 01:52:00,39.2,30.2,30.13,NE,54,5.0,5.0,70,0.00,,,0.00,0,Wunderground v.1.15,2013-03-28 06:52:00,
2013-03-28 01:58:00,39.2,30.9,30.12,NE,54,4.0,7.0,72,0.00,,,0.00,0,Wunderground v.1.15,2013-03-28 06:58:00,
2013-03-28 02:04:00,40.0,31.0,30.12,NE,54,5.0,7.0,70,0.00,,,0.00,0,Wunderground v.1.15,2013-03-28 07:04:00,
2013-03-28 02:10:00,40.8,31.1,30.13,NE,54,6.0,7.0,68,0.00,,,0.00,0,Wunderground v.1.15,2013-03-28 07:10:00,
2013-03-28 02:16:00,41.1,31.0,30.13,NE,54,6.0,6.0,67,0.00,,,0.00,0,Wunderground v.1.15,2013-03-28 07:16:00,
2013-03-28 02:22:00,40.0,30.3,30.13,NE,54,5.0,6.0,68,0.00,,,0.00,0,Wunderground v.1.15,2013-03-28 07:22:00,
2013-03-28 02:28:00,40.0,30.6,30.13,NE,54,4.0,5.0,69,0.00,,,0.00,0,Wunderground v.1.15,2013-03-28 07:28:00,
2013-03-28 02:34:00,40.3,30.6,30.13,NE,54,5.0,5.0,68,0.00,,,0.00,0,Wunderground v.1.15,2013-03-28 07:34:00,
2013-03-28 02:40:00,40.2,30.8,30.13,NE,54,4.0,5.0,69,0.00,,,0.00,0,Wunderground v.1.15,2013-03-28 07:40:00,
2013-03-28 02:46:00,40.7,31.0,30.13,NE,54,4.0,5.0,68,0.00,,,0.00,0,Wunderground v.1.15,2013-03-28 07:46:00,
2013-03-28 02:52:00,40.2,30.8,30.13,NE,54,5.0,5.0,69,0.00,,,0.00,0,Wunderground v.1.15,2013-03-28 07:52:00,
2013-03-28 02:58:00,40.0,30.6,30.13,NE,54,5.0,5.0,69,0.00,,,0.00,0,Wunderground v.1.15,2013-03-28 07:58:00,
2013-03-28 03:04:00,40.0,31.0,30.13,NE,54,5.0,5.0,70,0.00,,,0.00,0,Wunderground v.1.15,2013-03-28 08:04:00,
2013-03-28 03:10:00,39.9,30.9,30.13,NE,54,4.0,5.0,70,0.00,,,0.00,0,Wunderground v.1.15,2013-03-28 08:10:00,
2013-03-28 03:16:00,39.7,30.7,30.13,NE,54,4.0,5.0,70,0.00,,,0.00,0,Wunderground v.1.15,2013-03-28 08:16:00,
2013-03-28 03:22:00,39.5,30.5,30.13,NE,54,5.0,5.0,70,0.00,,,0.00,0,Wunderground v.1.15,2013-03-28 08:22:00,
2013-03-28 03:28:00,39.1,30.1,30.12,NE,53,6.0,8.0,70,0.00,,,0.00,0,Wunderground v.1.15,2013-03-28 08:28:00,
2013-03-28 03:34:00,38.3,29.7,30.12,NE,53,6.0,8.0,71,0.00,,,0.00,0,Wunderground v.1.15,2013-03-28 08:34:00,
2013-03-28 03:40:00,37.6,29.7,30.12,NE,50,7.0,7.0,73,0.00,,,0.00,0,Wunderground v.1.15,2013-03-28 08:40:00,
2013-03-28 03:46:00,37.2,29.7,30.12,NE,50,6.0,6.0,74,0.00,,,0.00,0,Wunderground v.1.15,2013-03-28 08:46:00,
2013-03-28 03:52:00,36.7,29.2,30.12,NE,50,5.0,6.0,74,0.00,,,0.00,0,Wunderground v.1.15,2013-03-28 08:52:00,
2013-03-28 03:58:00,36.8,29.6,30.11,NE,50,6.0,6.0,75,0.00,,,0.00,0,Wunderground v.1.15,2013-03-28 08:58:00,
2013-03-28 04:04:00,36.7,29.5,30.12,NE,50,6.0,6.0,75,0.00,,,0.00,0,Wunderground v.1.15,2013-03-28 09:04:00,
2013-03-28 04:10:00,36.5,29.7,30.11,NE,50,6.0,6.0,76,0.00,,,0.00,0,Wunderground v.1.15,2013-03-28 09:10:00,
2013-03-28 04:16:00,36.5,29.7,30.11,NE,50,5.0,5.0,76,0.00,,,0.00,0,Wunderground v.1.15,2013-03-28 09:16:00,
2013-03-28 04:22:00,36.8,29.9,30.11,NE,50,5.0,6.0,76,0.00,,,0.00,0,Wunderground v.1.15,2013-03-28 09:22:00,
2013-03-28 04:28:00,37.2,30.3,30.11,NE,50,5.0,6.0,76,0.00,,,0.00,0,Wunderground v.1.15,2013-03-28 09:28:00,
2013-03-28 04:34:00,37.0,30.1,30.12,NE,50,5.0,6.0,76,0.00,,,0.00,0,Wunderground v.1.15,2013-03-28 09:34:00,
2013-03-28 04:40:00,36.9,30.4,30.11,NE,50,5.0,6.0,77,0.00,,,0.00,0,Wunderground v.1.15,2013-03-28 09:40:00,
2013-03-28 04:46:00,36.9,30.4,30.12,NE,50,6.0,6.0,77,0.00,,,0.00,0,Wunderground v.1.15,2013-03-28 09:46:00,
2013-03-28 04:52:00,37.3,30.7,30.12,NE,50,5.0,6.0,77,0.00,,,0.00,0,Wunderground v.1.15,2013-03-28 09:52:00,
2013-03-28 04:58:00,37.2,30.3,30.12,NE,50,5.0,6.0,76,0.00,,,0.00,0,Wunderground v.1.15,2013-03-28 09:58:00,
2013-03-28 05:04:00,36.6,30.1,30.12,NE,50,6.0,6.0,77,0.00,,,0.00,0,Wunderground v.1.15,2013-03-28 10:04:00,
2013-03-28 05:10:00,36.2,30.0,30.12,NE,50,6.0,6.0,78,0.00,,,0.00,0,Wunderground v.1.15,2013-03-28 10:10:00,
2013-03-28 05:16:00,36.2,30.3,30.13,NE,50,5.0,6.0,79,0.00,,,0.00,0,Wunderground v.1.15,2013-03-28 10:16:00,
2013-03-28 05:22:00,36.0,30.1,30.13,NE,50,6.0,7.0,79,0.00,,,0.00,0,Wunderground v.1.15,2013-03-28 10:22:00,
2013-03-28 05:28:00,35.8,30.2,30.12,NE,50,7.0,7.0,80,0.00,,,0.00,0,Wunderground v.1.15,2013-03-28 10:28:00,
2013-03-28 05:34:00,35.5,29.9,30.12,NE,50,6.0,7.0,80,0.00,,,0.00,0,Wunderground v.1.15,2013-03-28 10:34:00,
2013-03-28 05:40:00,35.7,30.4,30.13,NE,50,5.0,6.0,81,0.00,,,0.00,0,Wunderground v.1.15,2013-03-28 10:40:00,
2013-03-28 05:46:00,36.2,30.9,30.12,NE,50,5.0,6.0,81,0.00,,,0.00,0,Wunderground v.1.15,2013-03-28 10:46:00,
2013-03-28 05:52:00,36.4,31.1,30.13,NE,50,5.0,6.0,81,0.00,,,0.00,0,Wunderground v.1.15,2013-03-28 10:52:00,
2013-03-28 05:58:00,36.3,31.0,30.13,NE,50,5.0,6.0,81,0.00,,,0.00,0,Wunderground v.1.15,2013-03-28 10:58:00,
2013-03-28 06:04:00,36.4,31.1,30.12,NE,50,5.0,6.0,81,0.00,,,0.00,0,Wunderground v.1.15,2013-03-28 11:04:00,
2013-03-28 06:10:00,36.2,30.9,30.13,NE,50,5.0,5.0,81,0.00,,,0.00,0,Wunderground v.1.15,2013-03-28 11:10:00,
2013-03-28 06:16:00,36.1,30.8,30.13,NE,50,5.0,6.0,81,0.00,,,0.00,0,Wunderground v.1.15,2013-03-28 11:16:00,
2013-03-28 06:22:00,35.9,30.6,30.12,NE,50,6.0,6.0,81,0.00,,,0.00,0,Wunderground v.1.15,2013-03-28 11:22:00,
2013-03-28 06:28:00,35.5,30.2,30.13,NE,50,6.0,6.0,81,0.00,,,0.00,0,Wunderground v.1.15,2013-03-28 11:28:00,
2013-03-28 06:34:00,35.4,30.1,30.13,NE,49,6.0,7.0,81,0.00,,,0.00,0,Wunderground v.1.15,2013-03-28 11:34:00,
2013-03-28 06:40:00,35.5,30.5,30.13,NE,49,7.0,7.0,82,0.00,,,0.00,0,Wunderground v.1.15,2013-03-28 11:40:00,
2013-03-28 06:46:00,35.2,30.0,30.13,NE,49,6.0,6.0,81,0.00,,,0.00,0,Wunderground v.1.15,2013-03-28 11:46:00,
2013-03-28 06:52:00,35.0,29.8,30.14,NE,48,6.0,8.0,81,0.00,,,0.00,0,Wunderground v.1.15,2013-03-28 11:52:00,
2013-03-28 06:58:00,35.3,30.4,30.13,NE,47,6.0,6.0,82,0.00,,,0.00,0,Wunderground v.1.15,2013-03-28 11:58:00,
2013-03-28 07:04:00,35.2,30.3,30.13,NE,47,5.0,7.0,82,0.00,,,0.00,0,Wunderground v.1.15,2013-03-28 12:04:00,
2013-03-28 07:10:00,34.9,29.7,30.13,NE,47,6.0,6.0,81,0.00,,,0.00,0,Wunderground v.1.15,2013-03-28 12:10:00,
2013-03-28 07:16:00,34.6,29.7,30.13,NE,47,5.0,5.0,82,0.00,,,0.00,0,Wunderground v.1.15,2013-03-28 12:16:00,
2013-03-28 07:22:00,34.6,29.7,30.13,NE,47,4.0,5.0,82,0.00,,,0.00,5,Wunderground v.1.15,2013-03-28 12:22:00,
2013-03-28 07:28:00,34.4,29.5,30.13,NE,47,4.0,5.0,82,0.00,,,0.00,11,Wunderground v.1.15,2013-03-28 12:28:00,
2013-03-28 07:34:00,34.3,29.7,30.13,NE,47,4.0,5.0,83,0.00,,,0.00,14,Wunderground v.1.15,2013-03-28 12:34:00,
2013-03-28 07:40:00,34.6,30.0,30.13,NE,47,6.0,7.0,83,0.00,,,0.00,21,Wunderground v.1.15,2013-03-28 12:40:00,
2013-03-28 07:46:00,35.4,31.0,30.14,NE,46,7.0,7.0,84,0.00,,,0.00,37,Wunderground v.1.15,2013-03-28 12:46:00,
2013-03-28 07:52:00,35.9,31.2,30.14,NE,46,5.0,7.0,83,0.00,,,0.00,56,Wunderground v.1.15,2013-03-28 12:52:00,
2013-03-28 07:58:00,36.2,31.2,30.14,NE,46,4.0,5.0,82,0.00,,,0.00,81,Wunderground v.1.15,2013-03-28 12:58:00,
2013-03-28 08:04:00,37.0,32.3,30.14,NE,46,4.0,5.0,83,0.00,,,0.00,100,Wunderground v.1.15,2013-03-28 13:04:00,
2013-03-28 08:10:00,38.6,33.9,30.14,NE,46,4.0,5.0,83,0.00,,,0.00,118,Wunderground v.1.15,2013-03-28 13:10:00,
2013-03-28 08:16:00,39.3,34.0,30.14,NE,46,4.0,5.0,81,0.00,,,0.00,125,Wunderground v.1.15,2013-03-28 13:16:00,
2013-03-28 08:22:00,40.0,34.3,30.15,NE,46,4.0,5.0,80,0.00,,,0.00,109,Wunderground v.1.15,2013-03-28 13:22:00,
2013-03-28 08:28:00,40.3,33.7,30.14,NE,46,3.0,5.0,77,0.00,,,0.00,127,Wunderground v.1.15,2013-03-28 13:28:00,
2013-03-28 08:34:00,40.6,34.3,30.14,NE,46,3.0,5.0,78,0.00,,,0.00,90,Wunderground v.1.15,2013-03-28 13:34:00,
2013-03-28 08:40:00,40.9,34.6,30.15,NE,46,4.0,5.0,78,0.00,,,0.00,111,Wunderground v.1.15,2013-03-28 13:40:00,
2013-03-28 08:46:00,41.3,34.6,30.14,NE,46,4.0,4.0,77,0.00,,,0.00,121,Wunderground v.1.15,2013-03-28 13:46:00,
2013-03-28 08:52:00,41.7,35.0,30.14,NE,50,3.0,5.0,77,0.00,,,0.00,118,Wunderground v.1.15,2013-03-28 13:52:00,
2013-03-28 08:58:00,42.2,35.5,30.14,NE,50,3.0,5.0,77,0.00,,,0.00,128,Wunderground v.1.15,2013-03-28 13:58:00,
2013-03-28 09:04:00,42.6,35.2,30.14,NE,50,4.0,6.0,75,0.00,,,0.00,130,Wunderground v.1.15,2013-03-28 14:04:00,
2013-03-28 09:10:00,43.0,36.0,30.14,NE,50,4.0,5.0,76,0.00,,,0.00,158,Wunderground v.1.15,2013-03-28 14:10:00,
2013-03-28 09:16:00,43.4,35.7,30.14,NE,50,4.0,4.0,74,0.00,,,0.00,199,Wunderground v.1.15,2013-03-28 14:16:00,
2013-03-28 09:22:00,44.1,36.3,30.15,NE,50,4.0,5.0,74,0.00,,,0.00,304,Wunderground v.1.15,2013-03-28 14:22:00,
2013-03-28 09:28:00,44.9,36.4,30.15,NE,50,4.0,5.0,72,0.00,,,0.00,281,Wunderground v.1.15,2013-03-28 14:28:00,
2013-03-28 09:34:00,45.3,36.1,30.15,NE,50,3.0,5.0,70,0.00,,,0.00,206,Wunderground v.1.15,2013-03-28 14:34:00,
2013-03-28 09:40:00,45.9,36.3,30.15,NE,50,3.0,5.0,69,0.00,,,0.00,204,Wunderground v.1.15,2013-03-28 14:40:00,
2013-03-28 09:46:00,46.2,37.0,30.15,NE,50,3.0,3.0,70,0.00,,,0.00,230,Wunderground v.1.15,2013-03-28 14:46:00,
2013-03-28 09:52:00,46.8,37.2,30.15,NE,50,3.0,5.0,69,0.00,,,0.00,260,Wunderground v.1.15,2013-03-28 14:52:00,
2013-03-28 09:58:00,47.4,36.6,30.15,NE,53,3.0,5.0,66,0.00,,,0.00,264,Wunderground v.1.15,2013-03-28 14:58:00,
2013-03-28 10:04:00,47.8,35.4,30.15,NE,55,3.0,7.0,62,0.00,,,0.00,260,Wunderground v.1.15,2013-03-28 15:04:00,
2013-03-28 10:10:00,48.1,35.7,30.15,ENE,57,4.0,5.0,62,0.00,,,0.00,269,Wunderground v.1.15,2013-03-28 15:10:00,
2013-03-28 10:16:00,48.4,35.6,30.15,ENE,61,3.0,5.0,61,0.00,,,0.00,264,Wunderground v.1.15,2013-03-28 15:16:00,
2013-03-28 10:22:00,48.8,35.5,30.15,ENE,68,4.0,7.0,60,0.00,,,0.00,336,Wunderground v.1.15,2013-03-28 15:22:00,
2013-03-28 10:28:00,49.2,35.0,30.15,ESE,104,5.0,5.0,58,0.00,,,0.00,288,Wunderground v.1.15,2013-03-28 15:28:00,
2013-03-28 10:34:00,49.7,36.8,30.14,ESE,112,6.0,7.0,61,0.00,,,0.00,362,Wunderground v.1.15,2013-03-28 15:34:00,
2013-03-28 10:40:00,50.2,36.4,30.15,ESE,112,5.0,8.0,59,0.00,,,0.00,457,Wunderground v.1.15,2013-03-28 15:40:00,
2013-03-28 10:48:00,50.8,36.5,30.15,ESE,114,5.0,5.0,58,0.00,,,0.00,352,Wunderground v.1.15,2013-03-28 15:48:00,
2013-03-28 10:54:00,51.3,37.9,30.15,SE,135,6.0,6.0,60,0.00,,,0.00,323,Wunderground v.1.15,2013-03-28 15:54:00,
2013-03-28 11:00:00,51.7,37.4,30.15,SE,133,6.0,7.0,58,0.00,,,0.00,443,Wunderground v.1.15,2013-03-28 16:00:00,
2013-03-28 11:06:00,52.1,37.8,30.15,SE,133,5.0,5.0,58,0.00,,,0.00,554,Wunderground v.1.15,2013-03-28 16:06:00,
2013-03-28 11:12:00,53.0,38.6,30.15,SE,133,4.0,7.0,58,0.00,,,0.00,587,Wunderground v.1.15,2013-03-28 16:12:00,
2013-03-28 11:18:00,53.5,38.6,30.16,SE,133,5.0,5.0,57,0.00,,,0.00,654,Wunderground v.1.15,2013-03-28 16:18:00,
2013-03-28 11:24:00,54.3,38.9,30.15,SE,132,4.0,5.0,56,0.00,,,0.00,650,Wunderground v.1.15,2013-03-28 16:24:00,
2013-03-28 11:30:00,55.1,38.7,30.15,SE,132,3.0,5.0,54,0.00,,,0.00,717,Wunderground v.1.15,2013-03-28 16:30:00,
2013-03-28 11:36:00,55.9,40.0,30.15,SE,135,3.0,5.0,55,0.00,,,0.00,719,Wunderground v.1.15,2013-03-28 16:36:00,
2013-03-28 11:42:00,56.6,40.6,30.15,SE,133,3.0,5.0,55,0.00,,,0.00,657,Wunderground v.1.15,2013-03-28 16:42:00,
2013-03-28 11:48:00,57.0,41.4,30.15,SE,133,3.0,5.0,56,0.00,,,0.00,728,Wunderground v.1.15,2013-03-28 16:48:00,
2013-03-28 11:54:00,58.2,41.1,30.15,SE,133,2.0,6.0,53,0.00,,,0.00,765,Wunderground v.1.15,2013-03-28 16:54:00,
2013-03-28 12:00:00,58.3,41.2,30.15,SE,133,3.0,5.0,53,0.00,,,0.00,747,Wunderground v.1.15,2013-03-28 17:00:00,
2013-03-28 12:06:00,58.5,42.4,30.15,SE,133,3.0,5.0,55,0.00,,,0.00,729,Wunderground v.1.15,2013-03-28 17:06:00,
2013-03-28 12:12:00,59.5,42.3,30.15,SE,132,2.0,5.0,53,0.00,,,0.00,731,Wunderground v.1.15,2013-03-28 17:12:00,
2013-03-28 12:18:00,59.7,41.5,30.14,SE,131,3.0,5.0,51,0.00,,,0.00,740,Wunderground v.1.15,2013-03-28 17:18:00,
2013-03-28 12:24:00,59.6,42.4,30.14,SE,131,3.0,5.0,53,0.00,,,0.00,675,Wunderground v.1.15,2013-03-28 17:24:00,
2013-03-28 12:30:00,60.5,41.8,30.14,SE,131,2.0,5.0,50,0.00,,,0.00,707,Wunderground v.1.15,2013-03-28 17:30:00,
2013-03-28 12:36:00,60.8,42.0,30.14,ESE,120,3.0,5.0,50,0.00,,,0.00,708,Wunderground v.1.15,2013-03-28 17:36:00,
2013-03-28 12:42:00,61.0,41.7,30.13,ESE,120,3.0,5.0,49,0.00,,,0.00,717,Wunderground v.1.15,2013-03-28 17:42:00,
2013-03-28 12:48:00,61.5,42.2,30.13,ESE,120,3.0,5.0,49,0.00,,,0.00,482,Wunderground v.1.15,2013-03-28 17:48:00,
2013-03-28 12:54:00,61.7,42.3,30.13,ESE,120,4.0,5.0,49,0.00,,,0.00,478,Wunderground v.1.15,2013-03-28 17:54:00,
2013-03-28 13:00:00,62.4,43.5,30.13,ESE,120,4.0,5.0,50,0.00,,,0.00,680,Wunderground v.1.15,2013-03-28 18:00:00,
2013-03-28 13:06:00,62.3,42.3,30.13,ESE,120,5.0,5.0,48,0.00,,,0.00,425,Wunderground v.1.15,2013-03-28 18:06:00,
2013-03-28 13:12:00,62.0,42.1,30.13,ESE,120,4.0,5.0,48,0.00,,,0.00,469,Wunderground v.1.15,2013-03-28 18:12:00,
2013-03-28 13:18:00,62.5,43.1,30.13,ESE,112,4.0,5.0,49,0.00,,,0.00,561,Wunderground v.1.15,2013-03-28 18:18:00,
2013-03-28 13:24:00,62.9,43.4,30.13,ESE,112,3.0,5.0,49,0.00,,,0.00,592,Wunderground v.1.15,2013-03-28 18:24:00,
2013-03-28 13:30:00,63.5,42.9,30.12,ESE,112,4.0,5.0,47,0.00,,,0.00,587,Wunderground v.1.15,2013-03-28 18:30:00,
2013-03-28 13:38:00,63.7,43.1,30.12,ESE,118,5.0,9.0,47,0.00,,,0.00,712,Wunderground v.1.15,2013-03-28 18:38:00,
2013-03-28 13:46:00,64.7,43.4,30.12,SE,137,6.0,7.0,46,0.00,,,0.00,561,Wunderground v.1.15,2013-03-28 18:46:00,
2013-03-28 13:52:00,64.5,43.8,30.12,SE,129,9.0,13.0,47,0.00,,,0.00,854,Wunderground v.1.15,2013-03-28 18:52:00,
2013-03-28 13:58:00,65.1,44.4,30.11,SSE,151,9.0,9.0,47,0.00,,,0.00,912,Wunderground v.1.15,2013-03-28 18:58:00,
2013-03-28 14:04:00,65.4,44.6,30.11,East,94,7.0,10.0,47,0.00,,,0.00,650,Wunderground v.1.15,2013-03-28 19:04:00,
2013-03-28 14:10:00,65.2,44.5,30.11,SE,124,7.0,12.0,47,0.00,,,0.00,881,Wunderground v.1.15,2013-03-28 19:10:00,
2013-03-28 14:18:00,66.0,44.6,30.11,SE,139,7.0,7.0,46,0.00,,,0.00,865,Wunderground v.1.15,2013-03-28 19:18:00,
2013-03-28 14:24:00,65.2,45.0,30.11,SE,132,7.0,9.0,48,0.00,,,0.00,250,Wunderground v.1.15,2013-03-28 19:24:00,
2013-03-28 14:30:00,64.6,45.5,30.10,SE,146,7.0,8.0,50,0.00,,,0.00,274,Wunderground v.1.15,2013-03-28 19:30:00,
2013-03-28 14:36:00,64.2,44.1,30.10,SE,128,6.0,6.0,48,0.00,,,0.00,338,Wunderground v.1.15,2013-03-28 19:36:00,
2013-03-28 14:42:00,64.9,45.8,30.10,SE,141,6.0,8.0,50,0.00,,,0.00,464,Wunderground v.1.15,2013-03-28 19:42:00,
2013-03-28 14:48:00,64.7,45.1,30.10,SE,130,7.0,7.0,49,0.00,,,0.00,346,Wunderground v.1.15,2013-03-28 19:48:00,
2013-03-28 14:54:00,65.0,45.4,30.10,SE,133,6.0,8.0,49,0.00,,,0.00,425,Wunderground v.1.15,2013-03-28 19:54:00,
2013-03-28 15:00:00,66.5,46.2,30.09,SE,145,7.0,9.0,48,0.00,,,0.00,881,Wunderground v.1.15,2013-03-28 20:00:00,
2013-03-28 15:06:00,67.2,46.3,30.09,SE,145,7.0,7.0,47,0.00,,,0.00,925,Wunderground v.1.15,2013-03-28 20:06:00,
2013-03-28 15:12:00,66.8,46.5,30.09,ESE,123,6.0,11.0,48,0.00,,,0.00,497,Wunderground v.1.15,2013-03-28 20:12:00,
2013-03-28 15:18:00,66.3,47.1,30.09,ESE,116,6.0,8.0,50,0.00,,,0.00,972,Wunderground v.1.15,2013-03-28 20:18:00,
2013-03-28 15:24:00,66.4,46.7,30.08,ESE,116,5.0,8.0,49,0.00,,,0.00,364,Wunderground v.1.15,2013-03-28 20:24:00,
2013-03-28 15:30:00,66.3,47.1,30.08,SE,125,5.0,5.0,50,0.00,,,0.00,527,Wunderground v.1.15,2013-03-28 20:30:00,
2013-03-28 15:36:00,66.7,46.4,30.08,SE,137,5.0,8.0,48,0.00,,,0.00,410,Wunderground v.1.15,2013-03-28 20:36:00,
2013-03-28 15:42:00,66.9,46.6,30.07,ESE,123,6.0,8.0,48,0.00,,,0.00,373,Wunderground v.1.15,2013-03-28 20:42:00,
2013-03-28 15:48:00,67.4,47.0,30.07,ESE,116,6.0,7.0,48,0.00,,,0.00,448,Wunderground v.1.15,2013-03-28 20:48:00,
2013-03-28 15:54:00,68.6,47.0,30.07,ESE,112,6.0,10.0,46,0.00,,,0.00,788,Wunderground v.1.15,2013-03-28 20:54:00,
2013-03-28 16:00:00,69.2,47.5,30.07,SE,141,6.0,7.0,46,0.00,,,0.00,694,Wunderground v.1.15,2013-03-28 21:00:00,
2013-03-28 16:06:00,68.7,47.6,30.07,SSE,150,8.0,8.0,47,0.00,,,0.00,536,Wunderground v.1.15,2013-03-28 21:06:00,
2013-03-28 16:12:00,69.2,47.5,30.07,SE,137,9.0,13.0,46,0.00,,,0.00,689,Wunderground v.1.15,2013-03-28 21:12:00,
2013-03-28 16:18:00,68.5,46.3,30.06,SE,128,8.0,8.0,45,0.00,,,0.00,621,Wunderground v.1.15,2013-03-28 21:18:00,
2013-03-28 16:24:00,68.6,47.6,30.06,SE,142,7.0,13.0,47,0.00,,,0.00,635,Wunderground v.1.15,2013-03-28 21:24:00,
2013-03-28 16:30:00,68.9,47.8,30.06,SSE,158,8.0,9.0,47,0.00,,,0.00,475,Wunderground v.1.15,2013-03-28 21:30:00,
2013-03-28 16:36:00,68.6,47.0,30.06,ESE,120,8.0,8.0,46,0.00,,,0.00,578,Wunderground v.1.15,2013-03-28 21:36:00,
2013-03-28 16:42:00,68.4,47.4,30.06,SSE,166,7.0,11.0,47,0.00,,,0.00,527,Wunderground v.1.15,2013-03-28 21:42:00,
2013-03-28 16:48:00,68.8,47.7,30.06,SSE,152,6.0,6.0,47,0.00,,,0.00,501,Wunderground v.1.15,2013-03-28 21:48:00,
2013-03-28 16:54:00,68.8,47.2,30.06,SE,126,7.0,9.0,46,0.00,,,0.00,554,Wunderground v.1.15,2013-03-28 21:54:00,
2013-03-28 17:00:00,68.8,47.2,30.05,SE,124,8.0,8.0,46,0.00,,,0.00,501,Wunderground v.1.15,2013-03-28 22:00:00,
2013-03-28 17:06:00,68.8,47.2,30.05,ESE,120,6.0,8.0,46,0.00,,,0.00,476,Wunderground v.1.15,2013-03-28 22:06:00,
2013-03-28 17:12:00,68.6,47.6,30.04,SE,127,7.0,8.0,47,0.00,,,0.00,306,Wunderground v.1.15,2013-03-28 22:12:00,
2013-03-28 17:18:00,68.4,47.4,30.04,SE,131,5.0,9.0,47,0.00,,,0.00,341,Wunderground v.1.15,2013-03-28 22:18:00,
2013-03-28 17:24:00,68.8,47.7,30.05,SE,136,5.0,9.0,47,0.00,,,0.00,504,Wunderground v.1.15,2013-03-28 22:24:00,
2013-03-28 17:30:00,68.9,47.3,30.04,SE,132,6.0,6.0,46,0.00,,,0.00,276,Wunderground v.1.15,2013-03-28 22:30:00,
2013-03-28 17:38:00,68.4,48.5,30.04,SE,133,5.0,9.0,49,0.00,,,0.00,260,Wunderground v.1.15,2013-03-28 22:38:00,
2013-03-28 17:44:00,68.5,48.0,30.05,SE,131,6.0,9.0,48,0.00,,,0.00,264,Wunderground v.1.15,2013-03-28 22:44:00,
2013-03-28 17:50:00,68.4,47.4,30.05,SE,145,6.0,9.0,47,0.00,,,0.00,241,Wunderground v.1.15,2013-03-28 22:50:00,
2013-03-28 17:56:00,68.1,48.2,30.05,SSE,154,7.0,7.0,49,0.00,,,0.00,135,Wunderground v.1.15,2013-03-28 22:56:00,
2013-03-28 18:02:00,67.3,48.5,30.06,SSE,156,7.0,9.0,51,0.00,,,0.00,137,Wunderground v.1.15,2013-03-28 23:02:00,
2013-03-28 18:08:00,66.5,48.3,30.06,SSE,156,8.0,11.0,52,0.00,,,0.00,156,Wunderground v.1.15,2013-03-28 23:08:00,
2013-03-28 18:14:00,66.6,48.9,30.06,SSE,155,7.0,11.0,53,0.00,,,0.00,206,Wunderground v.1.15,2013-03-28 23:14:00,
2013-03-28 18:20:00,66.7,49.5,30.06,SSE,155,6.0,7.0,54,0.00,,,0.00,186,Wunderground v.1.15,2013-03-28 23:20:00,
2013-03-28 18:26:00,66.6,50.4,30.06,SSE,156,4.0,4.0,56,0.00,,,0.00,211,Wunderground v.1.15,2013-03-28 23:26:00,
2013-03-28 18:32:00,66.6,50.4,30.06,SSE,156,3.0,5.0,56,0.00,,,0.00,149,Wunderground v.1.15,2013-03-28 23:32:00,
2013-03-28 18:38:00,66.3,50.6,30.07,SSE,156,4.0,5.0,57,0.00,,,0.00,139,Wunderground v.1.15,2013-03-28 23:38:00,
2013-03-28 18:44:00,65.9,49.8,30.07,SSE,156,4.0,5.0,56,0.00,,,0.00,118,Wunderground v.1.15,2013-03-28 23:44:00,
2013-03-28 18:50:00,65.8,48.7,30.06,SSE,156,4.0,5.0,54,0.00,,,0.00,69,Wunderground v.1.15,2013-03-28 23:50:00,
2013-03-28 18:56:00,65.7,49.1,30.07,SSE,156,3.0,3.0,55,0.00,,,0.00,53,Wunderground v.1.15,2013-03-28 23:56:00,
2013-03-28 19:02:00,65.1,49.0,30.07,SSE,156,3.0,5.0,56,0.00,,,0.00,42,Wunderground v.1.15,2013-03-29 00:02:00,
2013-03-28 19:08:00,64.6,49.0,30.07,SSE,156,3.0,5.0,57,0.00,,,0.00,33,Wunderground v.1.15,2013-03-29 00:08:00,
2013-03-28 19:14:00,64.2,49.1,30.06,SSE,156,3.0,5.0,58,0.00,,,0.00,28,Wunderground v.1.15,2013-03-29 00:14:00,
2013-03-28 19:20:00,63.6,49.5,30.07,SSE,156,2.0,5.0,60,0.00,,,0.00,25,Wunderground v.1.15,2013-03-29 00:20:00,
2013-03-28 19:28:00,61.9,48.7,30.07,SSE,156,1.0,5.0,62,0.00,,,0.00,21,Wunderground v.1.15,2013-03-29 00:28:00,
2013-03-28 19:34:00,60.1,48.7,30.06,SSE,156,1.0,5.0,66,0.00,,,0.00,18,Wunderground v.1.15,2013-03-29 00:34:00,
2013-03-28 19:40:00,59.6,48.6,30.07,SSE,156,2.0,5.0,67,0.00,,,0.00,12,Wunderground v.1.15,2013-03-29 00:40:00,
2013-03-28 19:46:00,60.7,47.6,30.07,SSE,156,2.0,5.0,62,0.00,,,0.00,7,Wunderground v.1.15,2013-03-29 00:46:00,
2013-03-28 19:52:00,61.2,48.1,30.07,SSE,156,3.0,5.0,62,0.00,,,0.00,0,Wunderground v.1.15,2013-03-29 00:52:00,
2013-03-28 19:58:00,60.3,47.6,30.07,SSE,156,3.0,5.0,63,0.00,,,0.00,0,Wunderground v.1.15,2013-03-29 00:58:00,
2013-03-28 20:04:00,58.9,47.2,30.07,SSE,156,3.0,5.0,65,0.00,,,0.00,0,Wunderground v.1.15,2013-03-29 01:04:00,
2013-03-28 20:10:00,58.3,47.0,30.07,SSE,156,3.0,5.0,66,0.00,,,0.00,0,Wunderground v.1.15,2013-03-29 01:10:00,
2013-03-28 20:16:00,57.4,46.5,30.07,SSE,156,3.0,3.0,67,0.00,,,0.00,0,Wunderground v.1.15,2013-03-29 01:16:00,
2013-03-28 20:22:00,56.8,46.7,30.07,SSE,156,2.0,5.0,69,0.00,,,0.00,0,Wunderground v.1.15,2013-03-29 01:22:00,
2013-03-28 20:28:00,56.7,47.0,30.07,SSE,155,3.0,4.0,70,0.00,,,0.00,0,Wunderground v.1.15,2013-03-29 01:28:00,
2013-03-28 20:34:00,57.4,47.3,30.07,SSE,154,3.0,5.0,69,0.00,,,0.00,0,Wunderground v.1.15,2013-03-29 01:34:00,
2013-03-28 20:40:00,57.7,47.6,30.07,SSE,154,3.0,5.0,69,0.00,,,0.00,0,Wunderground v.1.15,2013-03-29 01:40:00,
2013-03-28 20:46:00,57.8,47.3,30.08,SSE,154,3.0,5.0,68,0.00,,,0.00,0,Wunderground v.1.15,2013-03-29 01:46:00,
2013-03-28 20:52:00,57.8,47.3,30.08,SSE,154,3.0,5.0,68,0.00,,,0.00,0,Wunderground v.1.15,2013-03-29 01:52:00,
2013-03-28 20:58:00,57.9,47.4,30.08,SSE,154,3.0,5.0,68,0.00,,,0.00,0,Wunderground v.1.15,2013-03-29 01:58:00,
2013-03-28 21:04:00,58.0,47.5,30.07,SSE,154,3.0,5.0,68,0.00,,,0.00,0,Wunderground v.1.15,2013-03-29 02:04:00,
2013-03-28 21:10:00,58.3,47.4,30.08,SSE,154,3.0,5.0,67,0.00,,,0.00,0,Wunderground v.1.15,2013-03-29 02:10:00,
2013-03-28 21:16:00,58.4,47.5,30.08,SSE,154,3.0,5.0,67,0.00,,,0.00,0,Wunderground v.1.15,2013-03-29 02:16:00,
2013-03-28 21:22:00,58.3,47.8,30.08,SSE,152,4.0,5.0,68,0.00,,,0.00,0,Wunderground v.1.15,2013-03-29 02:22:00,
2013-03-28 21:28:00,58.6,48.1,30.08,SE,135,4.0,5.0,68,0.00,,,0.00,0,Wunderground v.1.15,2013-03-29 02:28:00,
2013-03-28 21:34:00,58.9,48.0,30.08,ESE,108,5.0,8.0,67,0.00,,,0.00,0,Wunderground v.1.15,2013-03-29 02:34:00,
2013-03-28 21:40:00,59.4,48.0,30.08,East,100,6.0,7.0,66,0.00,,,0.00,0,Wunderground v.1.15,2013-03-29 02:40:00,
2013-03-28 21:46:00,60.0,47.8,30.08,East,100,6.0,7.0,64,0.00,,,0.00,0,Wunderground v.1.15,2013-03-29 02:46:00,
2013-03-28 21:52:00,60.3,48.1,30.08,East,100,5.0,7.0,64,0.00,,,0.00,0,Wunderground v.1.15,2013-03-29 02:52:00,
2013-03-28 21:58:00,60.4,47.7,30.08,East,96,6.0,7.0,63,0.00,,,0.00,0,Wunderground v.1.15,2013-03-29 02:58:00,
2013-03-28 22:04:00,60.3,48.1,30.09,East,95,6.0,8.0,64,0.00,,,0.00,0,Wunderground v.1.15,2013-03-29 03:04:00,
2013-03-28 22:10:00,60.2,47.6,30.09,East,92,6.0,8.0,63,0.00,,,0.00,0,Wunderground v.1.15,2013-03-29 03:10:00,
2013-03-28 22:16:00,60.1,47.5,30.09,East,91,7.0,7.0,63,0.00,,,0.00,0,Wunderground v.1.15,2013-03-29 03:16:00,
2013-03-28 22:22:00,60.0,46.9,30.09,East,86,7.0,8.0,62,0.00,,,0.00,0,Wunderground v.1.15,2013-03-29 03:22:00,
2013-03-28 22:28:00,59.8,46.7,30.09,East,88,7.0,8.0,62,0.00,,,0.00,0,Wunderground v.1.15,2013-03-29 03:28:00,
2013-03-28 22:34:00,59.7,46.7,30.09,East,87,7.0,9.0,62,0.00,,,0.00,0,Wunderground v.1.15,2013-03-29 03:34:00,
2013-03-28 22:40:00,59.5,46.5,30.09,East,89,7.0,7.0,62,0.00,,,0.00,0,Wunderground v.1.15,2013-03-29 03:40:00,
2013-03-28 22:46:00,59.3,46.7,30.10,East,91,7.0,7.0,63,0.00,,,0.00,0,Wunderground v.1.15,2013-03-29 03:46:00,
2013-03-28 22:52:00,58.9,46.3,30.10,East,94,6.0,8.0,63,0.00,,,0.00,0,Wunderground v.1.15,2013-03-29 03:52:00,
2013-03-28 22:58:00,58.8,46.6,30.09,East,98,6.0,6.0,64,0.00,,,0.00,0,Wunderground v.1.15,2013-03-29 03:58:00,
2013-03-28 23:00:00,58.7,46.5,30.09,East,98,6.0,7.0,64,0.00,,,0.00,0,Wunderground v.1.15,2013-03-29 04:00:00,
2013-03-28 23:02:00,58.6,46.5,30.09,East,98,6.0,7.0,64,0.00,,,0.00,0,Wunderground v.1.15,2013-03-29 04:02:00,
2013-03-28 23:04:00,58.5,46.4,30.09,East,98,5.0,7.0,64,0.00,,,0.00,0,Wunderground v.1.15,2013-03-29 04:04:00,
2013-03-28 23:06:00,58.4,46.7,30.09,East,98,5.0,5.0,65,0.00,,,0.00,0,Wunderground v.1.15,2013-03-29 04:06:00,
2013-03-28 23:12:00,58.0,46.3,30.09,East,98,4.0,5.0,65,0.00,,,0.00,0,Wunderground v.1.15,2013-03-29 04:12:00,
2013-03-28 23:18:00,57.7,46.4,30.09,East,98,3.0,5.0,66,0.00,,,0.00,0,Wunderground v.1.15,2013-03-29 04:18:00,
2013-03-28 23:24:00,57.4,46.5,30.09,East,98,3.0,5.0,67,0.00,,,0.00,0,Wunderground v.1.15,2013-03-29 04:24:00,
2013-03-28 23:30:00,56.4,46.4,30.10,East,98,4.0,6.0,69,0.00,,,0.00,0,Wunderground v.1.15,2013-03-29 04:30:00,
2013-03-28 23:36:00,55.7,46.4,30.10,East,98,5.0,5.0,71,0.00,,,0.00,0,Wunderground v.1.15,2013-03-29 04:36:00,
2013-03-28 23:42:00,55.3,46.4,30.09,East,98,4.0,5.0,72,0.00,,,0.00,0,Wunderground v.1.15,2013-03-29 04:42:00,
2013-03-28 23:48:00,55.5,46.6,30.10,East,98,4.0,5.0,72,0.00,,,0.00,0,Wunderground v.1.15,2013-03-29 04:48:00,
2013-03-28 23:54:00,55.7,46.4,30.10,East,98,3.0,5.0,71,0.00,,,0.00,0,Wunderground v.1.15,2013-03-29 04:54:00,